Antonina do Norte, Brazil
Current Conditions -  °F | °C
As of 5:00 PM on Tuesday 25 Nov 2014 (Local Time) from SBJU Reporting Station
Scattered Clouds Scattered Clouds  
Wind Chill: 97°   Ceiling: Unl
Heat Index: 99°   Visibility: 6mi
Dew Point: 64°   Wind: 6mph
Humidity: 34%   Direction: 80°E
Pressure: 29.85"   Gusts: NA
Location:  6.78°S, 39.99°W
Report Text: SBJU 252000Z 08005KT 9999 SCT022 36/18 Q1011
Loading
Personal Weather Stations






























Interactive Weather Map New forecast layout! Learn more

10-Day Weather Forecast

Advertisements
Track Severe Weather on mobile